sensor_id;sensor_type;location;lat;lon;timestamp;temperature;humidity
77496;SHT31;66600;48.378;9.948;2023-02-16T00:00:16;-0.74;98.07
77496;SHT31;66600;48.378;9.948;2023-02-16T00:02:42;-0.76;97.89
77496;SHT31;66600;48.378;9.948;2023-02-16T00:05:22;-0.89;97.68
77496;SHT31;66600;48.378;9.948;2023-02-16T00:07:48;-0.89;97.73
77496;SHT31;66600;48.378;9.948;2023-02-16T00:10:13;-0.95;97.85
77496;SHT31;66600;48.378;9.948;2023-02-16T00:12:39;-0.95;97.91
77496;SHT31;66600;48.378;9.948;2023-02-16T00:15:22;-0.99;97.99
77496;SHT31;66600;48.378;9.948;2023-02-16T00:17:48;-1.02;97.92
77496;SHT31;66600;48.378;9.948;2023-02-16T00:20:14;-1.04;97.77
77496;SHT31;66600;48.378;9.948;2023-02-16T00:22:40;-1.13;97.71
77496;SHT31;66600;48.378;9.948;2023-02-16T00:25:05;-1.26;97.78
77496;SHT31;66600;48.378;9.948;2023-02-16T00:27:32;-1.24;97.84
77496;SHT31;66600;48.378;9.948;2023-02-16T00:29:57;-1.20;97.85
77496;SHT31;66600;48.378;9.948;2023-02-16T00:32:23;-1.26;97.95
77496;SHT31;66600;48.378;9.948;2023-02-16T00:34:48;-1.21;98.08
77496;SHT31;66600;48.378;9.948;2023-02-16T00:37:13;-1.17;98.04
77496;SHT31;66600;48.378;9.948;2023-02-16T00:39:40;-1.24;97.94
77496;SHT31;66600;48.378;9.948;2023-02-16T00:42:12;-1.26;97.95
77496;SHT31;66600;48.378;9.948;2023-02-16T00:44:43;-1.21;98.10
77496;SHT31;66600;48.378;9.948;2023-02-16T00:47:29;-1.24;98.20
77496;SHT31;66600;48.378;9.948;2023-02-16T00:49:55;-1.27;98.21
77496;SHT31;66600;48.378;9.948;2023-02-16T00:52:31;-1.26;98.16
77496;SHT31;66600;48.378;9.948;2023-02-16T00:54:57;-1.31;98.05
77496;SHT31;66600;48.378;9.948;2023-02-16T00:57:24;-1.33;98.05
77496;SHT31;66600;48.378;9.948;2023-02-16T00:59:57;-1.39;97.94
77496;SHT31;66600;48.378;9.948;2023-02-16T01:02:24;-1.44;97.90
77496;SHT31;66600;48.378;9.948;2023-02-16T01:04:50;-1.50;97.95
77496;SHT31;66600;48.378;9.948;2023-02-16T01:07:17;-1.44;98.07
77496;SHT31;66600;48.378;9.948;2023-02-16T01:10:03;-1.41;98.05
77496;SHT31;66600;48.378;9.948;2023-02-16T01:12:46;-1.51;98.02
77496;SHT31;66600;48.378;9.948;2023-02-16T01:15:13;-1.51;98.03
77496;SHT31;66600;48.378;9.948;2023-02-16T01:17:39;-1.57;97.95
77496;SHT31;66600;48.378;9.948;2023-02-16T01:20:24;-1.60;98.01
77496;SHT31;66600;48.378;9.948;2023-02-16T01:22:50;-1.61;97.92
77496;SHT31;66600;48.378;9.948;2023-02-16T01:25:15;-1.62;97.89
77496;SHT31;66600;48.378;9.948;2023-02-16T01:27:42;-1.69;98.03
77496;SHT31;66600;48.378;9.948;2023-02-16T01:30:12;-1.65;97.99
77496;SHT31;66600;48.378;9.948;2023-02-16T01:32:38;-1.68;98.09
77496;SHT31;66600;48.378;9.948;2023-02-16T01:35:03;-1.65;98.24
77496;SHT31;66600;48.378;9.948;2023-02-16T01:37:29;-1.57;98.16
77496;SHT31;66600;48.378;9.948;2023-02-16T01:39:54;-1.60;98.21
77496;SHT31;66600;48.378;9.948;2023-02-16T01:42:31;-1.60;98.25
77496;SHT31;66600;48.378;9.948;2023-02-16T01:45:02;-1.58;98.25
77496;SHT31;66600;48.378;9.948;2023-02-16T01:47:33;-1.55;98.32
77496;SHT31;66600;48.378;9.948;2023-02-16T01:50:16;-1.58;98.30
77496;SHT31;66600;48.378;9.948;2023-02-16T01:52:54;-1.62;98.35
77496;SHT31;66600;48.378;9.948;2023-02-16T01:55:23;-1.62;98.14
77496;SHT31;66600;48.378;9.948;2023-02-16T01:57:52;-1.71;98.18
77496;SHT31;66600;48.378;9.948;2023-02-16T02:03:14;-1.74;98.28
77496;SHT31;66600;48.378;9.948;2023-02-16T02:05:59;-1.77;98.30
77496;SHT31;66600;48.378;9.948;2023-02-16T02:08:31;-1.74;98.38
77496;SHT31;66600;48.378;9.948;2023-02-16T02:11:11;-1.77;98.18
77496;SHT31;66600;48.378;9.948;2023-02-16T02:14:25;-1.77;98.08
77496;SHT31;66600;48.378;9.948;2023-02-16T02:16:30;-1.81;98.01
77496;SHT31;66600;48.378;9.948;2023-02-16T02:18:56;-1.85;98.02
77496;SHT31;66600;48.378;9.948;2023-02-16T02:24:21;-1.86;97.98
77496;SHT31;66600;48.378;9.948;2023-02-16T02:27:18;-1.88;98.04
77496;SHT31;66600;48.378;9.948;2023-02-16T02:30:09;-1.85;98.05
77496;SHT31;66600;48.378;9.948;2023-02-16T02:33:15;-1.82;98.02
77496;SHT31;66600;48.378;9.948;2023-02-16T02:36:10;-1.85;97.98
77496;SHT31;66600;48.378;9.948;2023-02-16T02:41:26;-1.83;98.01
77496;SHT31;66600;48.378;9.948;2023-02-16T02:44:17;-1.78;98.08
77496;SHT31;66600;48.378;9.948;2023-02-16T02:46:44;-1.72;98.03
77496;SHT31;66600;48.378;9.948;2023-02-16T02:49:10;-1.77;98.03
77496;SHT31;66600;48.378;9.948;2023-02-16T02:51:35;-1.78;97.99
77496;SHT31;66600;48.378;9.948;2023-02-16T02:57:07;-1.74;97.99
77496;SHT31;66600;48.378;9.948;2023-02-16T03:00:17;-1.71;97.93
77496;SHT31;66600;48.378;9.948;2023-02-16T03:05:58;-1.88;98.00
77496;SHT31;66600;48.378;9.948;2023-02-16T03:08:26;-1.92;98.08
77496;SHT31;66600;48.378;9.948;2023-02-16T03:10:58;-1.93;98.07
77496;SHT31;66600;48.378;9.948;2023-02-16T03:13:53;-1.89;98.09
77496;SHT31;66600;48.378;9.948;2023-02-16T03:16:26;-1.78;97.92
77496;SHT31;66600;48.378;9.948;2023-02-16T03:18:53;-1.72;97.88
77496;SHT31;66600;48.378;9.948;2023-02-16T03:21:39;-1.69;97.88
77496;SHT31;66600;48.378;9.948;2023-02-16T03:24:28;-1.72;97.93
77496;SHT31;66600;48.378;9.948;2023-02-16T03:27:15;-1.69;97.93
77496;SHT31;66600;48.378;9.948;2023-02-16T03:30:01;-1.67;97.90
77496;SHT31;66600;48.378;9.948;2023-02-16T03:32:28;-1.64;97.86
77496;SHT31;66600;48.378;9.948;2023-02-16T03:34:54;-1.64;97.89
77496;SHT31;66600;48.378;9.948;2023-02-16T03:37:19;-1.62;97.91
77496;SHT31;66600;48.378;9.948;2023-02-16T03:39:45;-1.69;97.89
77496;SHT31;66600;48.378;9.948;2023-02-16T03:42:29;-1.78;97.94
77496;SHT31;66600;48.378;9.948;2023-02-16T03:44:54;-1.77;97.97
77496;SHT31;66600;48.378;9.948;2023-02-16T03:47:19;-1.81;98.05
77496;SHT31;66600;48.378;9.948;2023-02-16T03:49:45;-1.75;98.03
77496;SHT31;66600;48.378;9.948;2023-02-16T03:52:10;-1.77;97.95
77496;SHT31;66600;48.378;9.948;2023-02-16T03:54:35;-1.72;97.87
77496;SHT31;66600;48.378;9.948;2023-02-16T03:57:00;-1.79;97.79
77496;SHT31;66600;48.378;9.948;2023-02-16T03:59:26;-1.83;97.83
77496;SHT31;66600;48.378;9.948;2023-02-16T04:01:51;-1.83;97.86
77496;SHT31;66600;48.378;9.948;2023-02-16T04:04:16;-1.86;97.89
77496;SHT31;66600;48.378;9.948;2023-02-16T04:06:42;-1.88;97.92
77496;SHT31;66600;48.378;9.948;2023-02-16T04:09:07;-1.89;97.97
77496;SHT31;66600;48.378;9.948;2023-02-16T04:11:32;-1.86;97.87
77496;SHT31;66600;48.378;9.948;2023-02-16T04:14:16;-1.83;97.78
77496;SHT31;66600;48.378;9.948;2023-02-16T04:16:42;-1.89;97.79
77496;SHT31;66600;48.378;9.948;2023-02-16T04:19:07;-1.88;97.94
77496;SHT31;66600;48.378;9.948;2023-02-16T04:21:33;-1.89;98.06
77496;SHT31;66600;48.378;9.948;2023-02-16T04:23:58;-1.89;98.09
77496;SHT31;66600;48.378;9.948;2023-02-16T04:26:24;-1.90;98.10
77496;SHT31;66600;48.378;9.948;2023-02-16T04:28:49;-1.93;98.17
77496;SHT31;66600;48.378;9.948;2023-02-16T04:31:15;-1.99;98.20
77496;SHT31;66600;48.378;9.948;2023-02-16T04:33:40;-1.88;98.21
77496;SHT31;66600;48.378;9.948;2023-02-16T04:36:06;-1.88;98.28
77496;SHT31;66600;48.378;9.948;2023-02-16T04:38:31;-1.62;98.38
77496;SHT31;66600;48.378;9.948;2023-02-16T04:40:56;-1.48;98.44
77496;SHT31;66600;48.378;9.948;2023-02-16T04:43:22;-1.36;98.41
77496;SHT31;66600;48.378;9.948;2023-02-16T04:45:47;-1.21;98.38
77496;SHT31;66600;48.378;9.948;2023-02-16T04:48:12;-1.10;98.32
77496;SHT31;66600;48.378;9.948;2023-02-16T04:50:38;-1.12;98.26
77496;SHT31;66600;48.378;9.948;2023-02-16T04:53:03;-1.10;98.27
77496;SHT31;66600;48.378;9.948;2023-02-16T04:55:28;-1.02;98.19
77496;SHT31;66600;48.378;9.948;2023-02-16T04:57:55;-0.93;98.16
77496;SHT31;66600;48.378;9.948;2023-02-16T05:00:20;-0.84;98.03
77496;SHT31;66600;48.378;9.948;2023-02-16T05:02:46;-0.86;97.97
77496;SHT31;66600;48.378;9.948;2023-02-16T05:05:11;-0.97;97.85
77496;SHT31;66600;48.378;9.948;2023-02-16T05:07:37;-1.00;97.81
77496;SHT31;66600;48.378;9.948;2023-02-16T05:10:03;-0.95;97.76
77496;SHT31;66600;48.378;9.948;2023-02-16T05:12:28;-0.88;97.70
77496;SHT31;66600;48.378;9.948;2023-02-16T05:15:12;-0.75;97.61
77496;SHT31;66600;48.378;9.948;2023-02-16T05:17:38;-0.69;97.59
77496;SHT31;66600;48.378;9.948;2023-02-16T05:20:03;-0.66;97.54
77496;SHT31;66600;48.378;9.948;2023-02-16T05:22:29;-0.69;97.55
77496;SHT31;66600;48.378;9.948;2023-02-16T05:24:57;-0.66;97.43
77496;SHT31;66600;48.378;9.948;2023-02-16T05:27:27;-0.62;97.46
77496;SHT31;66600;48.378;9.948;2023-02-16T05:29:53;-0.62;97.39
77496;SHT31;66600;48.378;9.948;2023-02-16T05:32:19;-0.60;97.28
77496;SHT31;66600;48.378;9.948;2023-02-16T05:34:45;-0.64;97.28
77496;SHT31;66600;48.378;9.948;2023-02-16T05:37:12;-0.68;97.24
77496;SHT31;66600;48.378;9.948;2023-02-16T05:39:37;-0.68;97.23
77496;SHT31;66600;48.378;9.948;2023-02-16T05:42:03;-0.78;97.09
77496;SHT31;66600;48.378;9.948;2023-02-16T05:44:28;-0.85;97.16
77496;SHT31;66600;48.378;9.948;2023-02-16T05:46:54;-0.91;97.14
77496;SHT31;66600;48.378;9.948;2023-02-16T05:49:20;-0.95;97.00
77496;SHT31;66600;48.378;9.948;2023-02-16T05:51:45;-0.96;97.08
77496;SHT31;66600;48.378;9.948;2023-02-16T05:54:11;-0.96;97.05
77496;SHT31;66600;48.378;9.948;2023-02-16T05:56:48;-0.95;97.15
77496;SHT31;66600;48.378;9.948;2023-02-16T05:59:14;-0.93;97.14
77496;SHT31;66600;48.378;9.948;2023-02-16T06:01:40;-0.93;97.12
77496;SHT31;66600;48.378;9.948;2023-02-16T06:04:10;-0.97;97.08
77496;SHT31;66600;48.378;9.948;2023-02-16T06:06:37;-1.03;97.04
77496;SHT31;66600;48.378;9.948;2023-02-16T06:09:05;-1.07;97.05
77496;SHT31;66600;48.378;9.948;2023-02-16T06:11:30;-1.09;97.05
77496;SHT31;66600;48.378;9.948;2023-02-16T06:14:10;-1.09;97.08
77496;SHT31;66600;48.378;9.948;2023-02-16T06:16:38;-1.12;97.00
77496;SHT31;66600;48.378;9.948;2023-02-16T06:19:04;-1.07;97.06
77496;SHT31;66600;48.378;9.948;2023-02-16T06:21:30;-1.04;97.12
77496;SHT31;66600;48.378;9.948;2023-02-16T06:23:56;-1.04;97.06
77496;SHT31;66600;48.378;9.948;2023-02-16T06:26:21;-1.00;97.08
77496;SHT31;66600;48.378;9.948;2023-02-16T06:28:47;-0.95;97.08
77496;SHT31;66600;48.378;9.948;2023-02-16T06:31:13;-0.95;96.99
77496;SHT31;66600;48.378;9.948;2023-02-16T06:33:38;-0.86;97.05
77496;SHT31;66600;48.378;9.948;2023-02-16T06:36:04;-0.78;97.02
77496;SHT31;66600;48.378;9.948;2023-02-16T06:38:29;-0.76;96.92
77496;SHT31;66600;48.378;9.948;2023-02-16T06:40:55;-0.69;96.87
77496;SHT31;66600;48.378;9.948;2023-02-16T06:43:20;-0.69;96.77
77496;SHT31;66600;48.378;9.948;2023-02-16T06:45:46;-0.62;96.70
77496;SHT31;66600;48.378;9.948;2023-02-16T06:48:12;-0.55;96.57
77496;SHT31;66600;48.378;9.948;2023-02-16T06:50:37;-0.53;96.41
77496;SHT31;66600;48.378;9.948;2023-02-16T06:53:03;-0.47;96.35
77496;SHT31;66600;48.378;9.948;2023-02-16T06:55:28;-0.41;96.20
77496;SHT31;66600;48.378;9.948;2023-02-16T06:57:58;-0.40;96.14
77496;SHT31;66600;48.378;9.948;2023-02-16T07:00:24;-0.33;95.93
77496;SHT31;66600;48.378;9.948;2023-02-16T07:02:49;-0.28;95.72
77496;SHT31;66600;48.378;9.948;2023-02-16T07:05:15;-0.19;95.53
77496;SHT31;66600;48.378;9.948;2023-02-16T07:07:41;-0.13;95.39
77496;SHT31;66600;48.378;9.948;2023-02-16T07:10:07;-0.19;95.16
77496;SHT31;66600;48.378;9.948;2023-02-16T07:12:32;-0.14;95.21
77496;SHT31;66600;48.378;9.948;2023-02-16T07:14:57;-0.13;95.07
77496;SHT31;66600;48.378;9.948;2023-02-16T07:17:23;-0.07;94.97
77496;SHT31;66600;48.378;9.948;2023-02-16T07:19:48;-0.07;94.88
77496;SHT31;66600;48.378;9.948;2023-02-16T07:22:13;0.01;94.68
77496;SHT31;66600;48.378;9.948;2023-02-16T07:24:39;0.08;94.41
77496;SHT31;66600;48.378;9.948;2023-02-16T07:27:04;0.07;94.27
77496;SHT31;66600;48.378;9.948;2023-02-16T07:29:30;0.08;94.09
77496;SHT31;66600;48.378;9.948;2023-02-16T07:31:55;0.02;94.08
77496;SHT31;66600;48.378;9.948;2023-02-16T07:34:22;0.10;94.03
77496;SHT31;66600;48.378;9.948;2023-02-16T07:36:47;0.11;93.80
77496;SHT31;66600;48.378;9.948;2023-02-16T07:39:12;0.08;93.70
77496;SHT31;66600;48.378;9.948;2023-02-16T07:41:38;0.12;93.66
77496;SHT31;66600;48.378;9.948;2023-02-16T07:44:03;0.14;93.42
77496;SHT31;66600;48.378;9.948;2023-02-16T07:46:28;0.21;93.47
77496;SHT31;66600;48.378;9.948;2023-02-16T07:48:54;0.26;93.29
77496;SHT31;66600;48.378;9.948;2023-02-16T07:51:29;0.38;93.25
77496;SHT31;66600;48.378;9.948;2023-02-16T07:53:56;0.46;93.14
77496;SHT31;66600;48.378;9.948;2023-02-16T07:56:23;0.56;93.00
77496;SHT31;66600;48.378;9.948;2023-02-16T07:58:53;0.50;92.97
77496;SHT31;66600;48.378;9.948;2023-02-16T08:01:19;0.60;92.86
77496;SHT31;66600;48.378;9.948;2023-02-16T08:03:45;0.63;92.56
77496;SHT31;66600;48.378;9.948;2023-02-16T08:06:10;0.72;92.69
77496;SHT31;66600;48.378;9.948;2023-02-16T08:08:36;0.88;92.73
77496;SHT31;66600;48.378;9.948;2023-02-16T08:13:34;0.94;92.18
77496;SHT31;66600;48.378;9.948;2023-02-16T08:15:59;0.98;92.16
77496;SHT31;66600;48.378;9.948;2023-02-16T08:18:24;0.90;92.08
77496;SHT31;66600;48.378;9.948;2023-02-16T08:20:50;0.97;92.52
77496;SHT31;66600;48.378;9.948;2023-02-16T08:23:15;1.07;92.21
77496;SHT31;66600;48.378;9.948;2023-02-16T08:25:40;1.17;92.29
77496;SHT31;66600;48.378;9.948;2023-02-16T08:28:06;1.14;92.17
77496;SHT31;66600;48.378;9.948;2023-02-16T08:30:32;1.22;91.92
77496;SHT31;66600;48.378;9.948;2023-02-16T08:32:58;1.32;91.60
77496;SHT31;66600;48.378;9.948;2023-02-16T08:35:27;1.41;91.40
77496;SHT31;66600;48.378;9.948;2023-02-16T08:37:53;1.48;91.38
77496;SHT31;66600;48.378;9.948;2023-02-16T08:40:18;1.58;90.97
77496;SHT31;66600;48.378;9.948;2023-02-16T08:42:48;1.70;91.00
77496;SHT31;66600;48.378;9.948;2023-02-16T08:45:13;1.70;90.55
77496;SHT31;66600;48.378;9.948;2023-02-16T08:47:39;1.74;90.46
77496;SHT31;66600;48.378;9.948;2023-02-16T08:50:05;1.81;90.41
77496;SHT31;66600;48.378;9.948;2023-02-16T08:52:30;1.93;90.11
77496;SHT31;66600;48.378;9.948;2023-02-16T08:54:56;2.06;89.83
77496;SHT31;66600;48.378;9.948;2023-02-16T08:57:21;2.01;89.70
77496;SHT31;66600;48.378;9.948;2023-02-16T08:59:46;2.10;89.82
77496;SHT31;66600;48.378;9.948;2023-02-16T09:02:31;2.17;89.38
77496;SHT31;66600;48.378;9.948;2023-02-16T09:04:57;2.34;89.35
77496;SHT31;66600;48.378;9.948;2023-02-16T09:07:23;2.41;88.65
77496;SHT31;66600;48.378;9.948;2023-02-16T09:09:48;2.57;88.44
77496;SHT31;66600;48.378;9.948;2023-02-16T09:12:13;2.66;87.91
77496;SHT31;66600;48.378;9.948;2023-02-16T09:14:39;2.93;87.55
77496;SHT31;66600;48.378;9.948;2023-02-16T09:17:05;3.15;87.22
77496;SHT31;66600;48.378;9.948;2023-02-16T09:19:31;3.27;87.18
77496;SHT31;66600;48.378;9.948;2023-02-16T09:21:57;3.43;86.04
77496;SHT31;66600;48.378;9.948;2023-02-16T09:24:22;3.42;85.53
77496;SHT31;66600;48.378;9.948;2023-02-16T09:26:47;3.52;85.57
77496;SHT31;66600;48.378;9.948;2023-02-16T09:29:13;3.65;85.38
77496;SHT31;66600;48.378;9.948;2023-02-16T09:31:40;3.83;84.85
77496;SHT31;66600;48.378;9.948;2023-02-16T09:34:14;3.86;84.92
77496;SHT31;66600;48.378;9.948;2023-02-16T09:36:40;4.00;84.94
77496;SHT31;66600;48.378;9.948;2023-02-16T09:39:06;4.14;84.65
77496;SHT31;66600;48.378;9.948;2023-02-16T09:46:51;4.33;82.61
77496;SHT31;66600;48.378;9.948;2023-02-16T09:49:39;4.30;81.75
77496;SHT31;66600;48.378;9.948;2023-02-16T09:52:11;4.38;81.54
77496;SHT31;66600;48.378;9.948;2023-02-16T09:54:43;4.38;81.56
77496;SHT31;66600;48.378;9.948;2023-02-16T09:57:20;4.58;81.68
77496;SHT31;66600;48.378;9.948;2023-02-16T09:59:49;4.76;80.61
77496;SHT31;66600;48.378;9.948;2023-02-16T10:07:58;4.97;79.44
77496;SHT31;66600;48.378;9.948;2023-02-16T10:10:42;5.20;78.75
77496;SHT31;66600;48.378;9.948;2023-02-16T10:13:36;5.14;79.21
77496;SHT31;66600;48.378;9.948;2023-02-16T10:16:05;5.40;78.91
77496;SHT31;66600;48.378;9.948;2023-02-16T10:18:39;5.41;77.62
77496;SHT31;66600;48.378;9.948;2023-02-16T10:21:13;5.48;77.70
77496;SHT31;66600;48.378;9.948;2023-02-16T10:26:29;5.79;77.80
77496;SHT31;66600;48.378;9.948;2023-02-16T10:28:58;5.89;76.68
77496;SHT31;66600;48.378;9.948;2023-02-16T10:31:28;5.86;76.85
77496;SHT31;66600;48.378;9.948;2023-02-16T10:37:20;6.18;76.35
77496;SHT31;66600;48.378;9.948;2023-02-16T10:47:48;6.35;75.29
77496;SHT31;66600;48.378;9.948;2023-02-16T10:50:32;6.61;75.05
77496;SHT31;66600;48.378;9.948;2023-02-16T10:53:05;6.79;74.54
77496;SHT31;66600;48.378;9.948;2023-02-16T10:55:32;6.85;74.35
77496;SHT31;66600;48.378;9.948;2023-02-16T10:58:00;7.09;73.84
77496;SHT31;66600;48.378;9.948;2023-02-16T11:00:51;7.24;72.62
77496;SHT31;66600;48.378;9.948;2023-02-16T11:03:23;7.32;71.81
77496;SHT31;66600;48.378;9.948;2023-02-16T11:05:48;7.51;71.83
77496;SHT31;66600;48.378;9.948;2023-02-16T11:08:14;7.66;71.49
77496;SHT31;66600;48.378;9.948;2023-02-16T11:10:46;7.65;71.54
77496;SHT31;66600;48.378;9.948;2023-02-16T11:15:56;7.99;70.69
77496;SHT31;66600;48.378;9.948;2023-02-16T11:18:37;8.09;70.11
77496;SHT31;66600;48.378;9.948;2023-02-16T11:21:05;8.19;69.40
77496;SHT31;66600;48.378;9.948;2023-02-16T11:23:34;8.37;68.73
77496;SHT31;66600;48.378;9.948;2023-02-16T11:28:46;8.51;67.89
77496;SHT31;66600;48.378;9.948;2023-02-16T11:31:33;8.65;66.87
77496;SHT31;66600;48.378;9.948;2023-02-16T11:34:06;8.71;66.20
77496;SHT31;66600;48.378;9.948;2023-02-16T11:36:45;8.88;66.58
77496;SHT31;66600;48.378;9.948;2023-02-16T11:39:23;8.93;65.17
77496;SHT31;66600;48.378;9.948;2023-02-16T11:41:50;8.93;66.45
77496;SHT31;66600;48.378;9.948;2023-02-16T11:44:25;9.15;65.91
77496;SHT31;66600;48.378;9.948;2023-02-16T11:46:52;9.26;64.57
77496;SHT31;66600;48.378;9.948;2023-02-16T11:49:21;9.33;63.28
77496;SHT31;66600;48.378;9.948;2023-02-16T11:51:52;9.43;62.73
77496;SHT31;66600;48.378;9.948;2023-02-16T11:57:34;9.48;62.23
77496;SHT31;66600;48.378;9.948;2023-02-16T12:00:13;9.65;61.90
77496;SHT31;66600;48.378;9.948;2023-02-16T12:02:53;9.71;61.93
77496;SHT31;66600;48.378;9.948;2023-02-16T12:05:28;9.82;61.44
77496;SHT31;66600;48.378;9.948;2023-02-16T12:13:46;10.13;60.60
77496;SHT31;66600;48.378;9.948;2023-02-16T12:16:26;10.30;59.17
77496;SHT31;66600;48.378;9.948;2023-02-16T12:27:17;10.58;59.10
77496;SHT31;66600;48.378;9.948;2023-02-16T12:43:22;10.99;56.48
77496;SHT31;66600;48.378;9.948;2023-02-16T12:45:42;11.12;56.57
77496;SHT31;66600;48.378;9.948;2023-02-16T12:50:57;11.32;55.04
77496;SHT31;66600;48.378;9.948;2023-02-16T12:53:32;11.32;55.09
77496;SHT31;66600;48.378;9.948;2023-02-16T12:56:08;11.37;54.77
77496;SHT31;66600;48.378;9.948;2023-02-16T12:58:39;11.47;54.27
77496;SHT31;66600;48.378;9.948;2023-02-16T13:01:12;11.56;52.52
77496;SHT31;66600;48.378;9.948;2023-02-16T13:03:49;11.53;52.40
77496;SHT31;66600;48.378;9.948;2023-02-16T13:06:24;11.64;52.30
77496;SHT31;66600;48.378;9.948;2023-02-16T13:11:47;11.77;52.21
77496;SHT31;66600;48.378;9.948;2023-02-16T13:14:16;11.84;52.21
77496;SHT31;66600;48.378;9.948;2023-02-16T13:16:55;11.95;51.68
77496;SHT31;66600;48.378;9.948;2023-02-16T13:19:22;12.09;50.40
77496;SHT31;66600;48.378;9.948;2023-02-16T13:33:15;12.66;46.99
77496;SHT31;66600;48.378;9.948;2023-02-16T13:36:26;12.40;47.81
77496;SHT31;66600;48.378;9.948;2023-02-16T13:39:17;12.01;48.25
77496;SHT31;66600;48.378;9.948;2023-02-16T13:41:59;11.85;48.99
77496;SHT31;66600;48.378;9.948;2023-02-16T13:47:01;11.74;46.35
77496;SHT31;66600;48.378;9.948;2023-02-16T13:49:34;11.82;46.72
77496;SHT31;66600;48.378;9.948;2023-02-16T13:52:04;11.90;47.47
77496;SHT31;66600;48.378;9.948;2023-02-16T13:54:35;12.02;46.48
77496;SHT31;66600;48.378;9.948;2023-02-16T13:57:02;12.16;46.44
77496;SHT31;66600;48.378;9.948;2023-02-16T14:01:53;12.37;44.44
77496;SHT31;66600;48.378;9.948;2023-02-16T14:06:50;12.12;45.79
77496;SHT31;66600;48.378;9.948;2023-02-16T14:19:39;11.46;48.19
77496;SHT31;66600;48.378;9.948;2023-02-16T14:22:17;11.47;48.18
77496;SHT31;66600;48.378;9.948;2023-02-16T14:24:42;11.46;46.87
77496;SHT31;66600;48.378;9.948;2023-02-16T14:27:11;11.42;47.27
77496;SHT31;66600;48.378;9.948;2023-02-16T14:29:54;11.33;48.03
77496;SHT31;66600;48.378;9.948;2023-02-16T14:32:26;11.36;47.94
77496;SHT31;66600;48.378;9.948;2023-02-16T14:35:12;11.30;48.27
77496;SHT31;66600;48.378;9.948;2023-02-16T14:37:40;11.27;48.77
77496;SHT31;66600;48.378;9.948;2023-02-16T14:40:16;11.32;47.99
77496;SHT31;66600;48.378;9.948;2023-02-16T14:42:51;11.34;47.92
77496;SHT31;66600;48.378;9.948;2023-02-16T14:53:57;11.22;49.60
77496;SHT31;66600;48.378;9.948;2023-02-16T14:56:38;11.23;50.37
77496;SHT31;66600;48.378;9.948;2023-02-16T15:02:23;11.90;47.29
77496;SHT31;66600;48.378;9.948;2023-02-16T15:04:49;12.04;48.21
77496;SHT31;66600;48.378;9.948;2023-02-16T15:07:15;12.19;47.52
77496;SHT31;66600;48.378;9.948;2023-02-16T15:09:42;11.90;47.70
77496;SHT31;66600;48.378;9.948;2023-02-16T15:12:12;11.66;48.38
77496;SHT31;66600;48.378;9.948;2023-02-16T15:14:50;11.63;48.17
77496;SHT31;66600;48.378;9.948;2023-02-16T15:17:35;11.44;49.07
77496;SHT31;66600;48.378;9.948;2023-02-16T15:20:29;11.26;49.82
77496;SHT31;66600;48.378;9.948;2023-02-16T15:22:57;11.11;50.38
77496;SHT31;66600;48.378;9.948;2023-02-16T15:25:28;10.99;50.88
77496;SHT31;66600;48.378;9.948;2023-02-16T15:28:00;11.02;50.91
77496;SHT31;66600;48.378;9.948;2023-02-16T15:30:29;10.99;51.12
77496;SHT31;66600;48.378;9.948;2023-02-16T15:33:01;10.92;51.72
77496;SHT31;66600;48.378;9.948;2023-02-16T15:35:34;10.89;52.61
77496;SHT31;66600;48.378;9.948;2023-02-16T15:38:02;10.74;52.54
77496;SHT31;66600;48.378;9.948;2023-02-16T15:40:28;10.68;52.47
77496;SHT31;66600;48.378;9.948;2023-02-16T15:43:00;10.64;52.61
77496;SHT31;66600;48.378;9.948;2023-02-16T15:45:34;10.63;52.62
77496;SHT31;66600;48.378;9.948;2023-02-16T15:48:21;10.51;52.50
77496;SHT31;66600;48.378;9.948;2023-02-16T15:50:50;10.43;52.65
77496;SHT31;66600;48.378;9.948;2023-02-16T15:54:04;10.39;52.82
77496;SHT31;66600;48.378;9.948;2023-02-16T15:58:48;10.34;53.37
77496;SHT31;66600;48.378;9.948;2023-02-16T16:01:26;10.28;53.74
77496;SHT31;66600;48.378;9.948;2023-02-16T16:04:01;10.23;53.35
77496;SHT31;66600;48.378;9.948;2023-02-16T16:06:38;10.22;53.95
77496;SHT31;66600;48.378;9.948;2023-02-16T16:09:04;10.19;53.33
77496;SHT31;66600;48.378;9.948;2023-02-16T16:11:33;10.14;53.42
77496;SHT31;66600;48.378;9.948;2023-02-16T16:13:59;10.06;53.61
77496;SHT31;66600;48.378;9.948;2023-02-16T16:16:25;10.02;53.92
77496;SHT31;66600;48.378;9.948;2023-02-16T16:18:52;9.96;54.21
77496;SHT31;66600;48.378;9.948;2023-02-16T16:21:21;9.86;54.95
77496;SHT31;66600;48.378;9.948;2023-02-16T16:23:55;9.79;54.92
77496;SHT31;66600;48.378;9.948;2023-02-16T16:26:21;9.75;55.21
77496;SHT31;66600;48.378;9.948;2023-02-16T16:28:47;9.65;55.15
77496;SHT31;66600;48.378;9.948;2023-02-16T16:31:15;9.55;55.44
77496;SHT31;66600;48.378;9.948;2023-02-16T16:34:01;9.43;56.37
77496;SHT31;66600;48.378;9.948;2023-02-16T16:36:46;9.30;56.93
77496;SHT31;66600;48.378;9.948;2023-02-16T16:39:18;9.22;56.98
77496;SHT31;66600;48.378;9.948;2023-02-16T16:41:47;9.12;57.53
77496;SHT31;66600;48.378;9.948;2023-02-16T16:44:31;8.96;58.39
77496;SHT31;66600;48.378;9.948;2023-02-16T16:52:55;8.64;59.52
77496;SHT31;66600;48.378;9.948;2023-02-16T16:55:28;8.58;59.68
77496;SHT31;66600;48.378;9.948;2023-02-16T16:57:56;8.57;59.90
77496;SHT31;66600;48.378;9.948;2023-02-16T17:00:24;8.51;60.59
77496;SHT31;66600;48.378;9.948;2023-02-16T17:02:49;8.42;60.75
77496;SHT31;66600;48.378;9.948;2023-02-16T17:05:15;8.38;61.27
77496;SHT31;66600;48.378;9.948;2023-02-16T17:07:40;8.36;61.58
77496;SHT31;66600;48.378;9.948;2023-02-16T17:10:07;8.19;62.39
77496;SHT31;66600;48.378;9.948;2023-02-16T17:12:32;8.04;62.70
77496;SHT31;66600;48.378;9.948;2023-02-16T17:14:58;8.04;62.78
77496;SHT31;66600;48.378;9.948;2023-02-16T17:17:24;8.02;62.97
77496;SHT31;66600;48.378;9.948;2023-02-16T17:19:49;7.92;63.32
77496;SHT31;66600;48.378;9.948;2023-02-16T17:22:17;7.82;63.51
77496;SHT31;66600;48.378;9.948;2023-02-16T17:24:42;7.86;63.39
77496;SHT31;66600;48.378;9.948;2023-02-16T17:27:08;7.74;63.76
77496;SHT31;66600;48.378;9.948;2023-02-16T17:29:34;7.65;64.09
77496;SHT31;66600;48.378;9.948;2023-02-16T17:32:00;7.57;64.78
77496;SHT31;66600;48.378;9.948;2023-02-16T17:34:25;7.48;65.21
77496;SHT31;66600;48.378;9.948;2023-02-16T17:36:55;7.51;65.07
77496;SHT31;66600;48.378;9.948;2023-02-16T17:39:20;7.57;64.87
77496;SHT31;66600;48.378;9.948;2023-02-16T17:41:46;7.47;65.72
77496;SHT31;66600;48.378;9.948;2023-02-16T17:44:12;7.37;65.88
77496;SHT31;66600;48.378;9.948;2023-02-16T17:46:37;7.31;66.14
77496;SHT31;66600;48.378;9.948;2023-02-16T17:49:02;7.44;65.91
77496;SHT31;66600;48.378;9.948;2023-02-16T17:51:28;7.32;66.85
77496;SHT31;66600;48.378;9.948;2023-02-16T17:53:54;7.34;66.76
77496;SHT31;66600;48.378;9.948;2023-02-16T17:56:21;7.32;66.79
77496;SHT31;66600;48.378;9.948;2023-02-16T17:58:47;7.32;66.94
77496;SHT31;66600;48.378;9.948;2023-02-16T18:01:14;7.23;67.51
77496;SHT31;66600;48.378;9.948;2023-02-16T18:03:39;7.17;67.94
77496;SHT31;66600;48.378;9.948;2023-02-16T18:06:05;7.11;68.17
77496;SHT31;66600;48.378;9.948;2023-02-16T18:08:30;7.03;68.42